< < Back
Terminal Aerodrome Forecast


Current Version              Previous Versions:   1  2  3  4  5  6  7  8  9  

Terminal Aerodrome Forecast

443
FTUS44 KMOB 252300
TAFPNS
TAF
KPNS 252320Z 2600/2624 34006KT P6SM -RA VCSH OVC110
     FM260700 33010KT P6SM SKC=

Latest METAR

710
SAUS70 KWBC 260400 RRB
MTRPNS
METAR KPNS 260353Z 35010KT 10SM SCT120 11/02 A3009 RMK AO2 SLP192
T01110022


USA.gov is the U.S. government's official web portal to all federal, state and local government web resources and services.